Lisbon Trader — A8TV8 — position and weather

sailwx.info

Track history (hours):
 
Tides and Currents Weather Stations Pressure Air Temp Water Temp Dewpoint Dewpoint Depression Visibility Wind Speed Wind Dir Waves Ship Positions

Lisbon Trader

Last reported at 2017-Oct-31 12:32 UTC. Time now 2017-Nov-24 20:44 UTC.
Position N 01°15' E 104°03'.
Warning: this ship's position is 24 days out of date.

Length 180 m; draft 7.9 m.

Type: Cargo ship. MMSI: 636091858.

Date/timePositionNaut miles runAvg speedWind from/ knotsBaromVisibWave heightAir tempDewpointWater temp
2017-Oct-31 12:32N 01°15' E 104°03'010.8
2017-Oct-31 12:30N 01°14' E 104°02'610.6
2017-Oct-31 11:56N 01°15' E 103°56'3 7.3
2017-Oct-31 11:30N 01°16' E 103°53'0 0.1
2017-Oct-31 10:55N 01°16' E 103°54'0 0.0
2017-Oct-31 10:25N 01°16' E 103°54'0 0.0
2017-Oct-31 09:01N 01°16' E 103°54'0 0.0
2017-Oct-31 08:55N 01°16' E 103°54'0 0.0
2017-Oct-31 08:07N 01°16' E 103°54'0 0.1
2017-Oct-31 07:55N 01°16' E 103°54'0 0.0
2017-Oct-31 07:19N 01°16' E 103°54'0 0.0
2017-Oct-31 06:49N 01°16' E 103°54'0 0.1
2017-Oct-31 06:01N 01°16' E 103°54'0 0.0
2017-Oct-31 05:55N 01°16' E 103°54'0 0.0
2017-Oct-31 05:25N 01°16' E 103°54'0 0.0
2017-Oct-31 04:55N 01°16' E 103°54'0 0.0
2017-Oct-31 04:25N 01°16' E 103°54'0 0.0
2017-Oct-31 03:55N 01°16' E 103°54'0 0.0
2017-Oct-31 03:25N 01°16' E 103°54'0 0.0
2017-Oct-31 02:55N 01°16' E 103°54'0 0.0
2017-Oct-31 02:25N 01°16' E 103°54'0 0.0
2017-Oct-31 01:55N 01°16' E 103°54'0 0.1
2017-Oct-31 01:25N 01°16' E 103°54'0 0.0
2017-Oct-31 00:37N 01°16' E 103°54'0 0.0
2017-Oct-31 00:25N 01°16' E 103°54'0 0.0
2017-Oct-30 23:55N 01°16' E 103°54'0 0.1
2017-Oct-30 23:25N 01°16' E 103°54'0 0.1
2017-Oct-30 22:55N 01°16' E 103°54'0 0.1
2017-Oct-30 22:25N 01°16' E 103°53'0 0.9
2017-Oct-30 22:01N 01°16' E 103°53'2 4.5
2017-Oct-30 21:31N 01°14' E 103°53'3 6.7
2017-Oct-30 21:00N 01°11' E 103°51'4 8.6
2017-Oct-30 20:31N 01°09' E 103°48'4 8.6
2017-Oct-30 20:00N 01°06' E 103°44'4 8.7
2017-Oct-30 19:30N 01°03' E 103°41'4 8.7
2017-Oct-30 19:00N 01°04' E 103°37'5 9.7
2017-Oct-30 18:31N 01°07' E 103°33'5 9.4
2017-Oct-30 17:59N 01°09' E 103°28'510.3
2017-Oct-30 17:30N 01°12' E 103°24'  
2017-Oct-24 23:53N 01°13' E 103°29'615.7
2017-Oct-24 23:30N 01°12' E 103°35'815.6
2017-Oct-24 23:00N 01°09' E 103°42'714.7
2017-Oct-24 22:30N 01°11' E 103°49'815.8
2017-Oct-24 22:00N 01°14' E 103°56'  
Track history (hours):
 
Tides and Currents Weather Stations Pressure Air Temp Water Temp Dewpoint Dewpoint Depression Visibility Wind Speed Wind Dir Waves Ship Positions

Lisbon Trader

Last reported at 2017-Oct-31 12:32 UTC. Time now 2017-Nov-24 20:44 UTC.
Position N 01°15' E 104°03'.
Warning: this ship's position is 24 days out of date.

Length 180 m; draft 7.9 m.

Type: Cargo ship. MMSI: 636091858.

Date/timePositionNaut miles runAvg speedWind from/ knotsBaromVisibWave heightAir tempDewpointWater temp
2017-Oct-31 12:32N 01°15' E 104°03'010.8
2017-Oct-31 12:30N 01°14' E 104°02'610.6
2017-Oct-31 11:56N 01°15' E 103°56'3 7.3
2017-Oct-31 11:30N 01°16' E 103°53'0 0.1
2017-Oct-31 10:55N 01°16' E 103°54'0 0.0
2017-Oct-31 10:25N 01°16' E 103°54'0 0.0
2017-Oct-31 09:01N 01°16' E 103°54'0 0.0
2017-Oct-31 08:55N 01°16' E 103°54'0 0.0
2017-Oct-31 08:07N 01°16' E 103°54'0 0.1
2017-Oct-31 07:55N 01°16' E 103°54'0 0.0
2017-Oct-31 07:19N 01°16' E 103°54'0 0.0
2017-Oct-31 06:49N 01°16' E 103°54'0 0.1
2017-Oct-31 06:01N 01°16' E 103°54'0 0.0
2017-Oct-31 05:55N 01°16' E 103°54'0 0.0
2017-Oct-31 05:25N 01°16' E 103°54'0 0.0
2017-Oct-31 04:55N 01°16' E 103°54'0 0.0
2017-Oct-31 04:25N 01°16' E 103°54'0 0.0
2017-Oct-31 03:55N 01°16' E 103°54'0 0.0
2017-Oct-31 03:25N 01°16' E 103°54'0 0.0
2017-Oct-31 02:55N 01°16' E 103°54'0 0.0
2017-Oct-31 02:25N 01°16' E 103°54'0 0.0
2017-Oct-31 01:55N 01°16' E 103°54'0 0.1
2017-Oct-31 01:25N 01°16' E 103°54'0 0.0
2017-Oct-31 00:37N 01°16' E 103°54'0 0.0
2017-Oct-31 00:25N 01°16' E 103°54'0 0.0
2017-Oct-30 23:55N 01°16' E 103°54'0 0.1
2017-Oct-30 23:25N 01°16' E 103°54'0 0.1
2017-Oct-30 22:55N 01°16' E 103°54'0 0.1
2017-Oct-30 22:25N 01°16' E 103°53'0 0.9
2017-Oct-30 22:01N 01°16' E 103°53'2 4.5
2017-Oct-30 21:31N 01°14' E 103°53'3 6.7
2017-Oct-30 21:00N 01°11' E 103°51'4 8.6
2017-Oct-30 20:31N 01°09' E 103°48'4 8.6
2017-Oct-30 20:00N 01°06' E 103°44'4 8.7
2017-Oct-30 19:30N 01°03' E 103°41'4 8.7
2017-Oct-30 19:00N 01°04' E 103°37'5 9.7
2017-Oct-30 18:31N 01°07' E 103°33'5 9.4
2017-Oct-30 17:59N 01°09' E 103°28'510.3
2017-Oct-30 17:30N 01°12' E 103°24'  
2017-Oct-24 23:53N 01°13' E 103°29'615.7
2017-Oct-24 23:30N 01°12' E 103°35'815.6
2017-Oct-24 23:00N 01°09' E 103°42'714.7
2017-Oct-24 22:30N 01°11' E 103°49'815.8
2017-Oct-24 22:00N 01°14' E 103°56'  

Dump ship's entire track history